Аэропорт: Усть-Каменогорск. Усть-Каменогорск

ICAO: UASK

METAR:
2019/05/26 14:00
UASK 261400Z 01002MPS 9999 FEW033 09/03 Q1026 R30/190055 NOSIG RMK QFE743/0991
METAR:
Информация по данной станции не доступна